Time;durP1;ratioP1;P1;durP2;ratioP2;P2;SDS_P1;SDS_P2;PMS_P1;PMS_P2;Temp;Humidity;BMP_temperature;BMP_pressure;BME280_temperature;BME280_humidity;BME280_pressure;Samples;Min_cycle;Max_cycle;Signal;HPM_P1;HPM_P2
2021/04/24 00:02:53;;;;;;;6.27;4.60;;;2.70;99.90;;;;;;6254386;28;20598;-69
2021/04/24 00:05:55;;;;;;;6.80;3.83;;;2.70;99.90;;;;;;6235625;28;20326;-69
2021/04/24 00:08:59;;;;;;;6.10;4.40;;;2.60;99.90;;;;;;6236461;28;20327;-69
2021/04/24 00:12:02;;;;;;;5.23;3.87;;;2.50;99.90;;;;;;6234911;28;20300;-69
2021/04/24 00:15:07;;;;;;;5.93;4.30;;;2.50;99.90;;;;;;6218220;28;20227;-69
2021/04/24 00:18:11;;;;;;;6.43;4.20;;;2.40;99.90;;;;;;6219264;28;20226;-69
2021/04/24 00:21:14;;;;;;;6.03;3.97;;;2.40;99.90;;;;;;6237733;28;20223;-69
2021/04/24 00:24:16;;;;;;;4.57;3.77;;;2.40;99.90;;;;;;6259462;28;20219;-69
2021/04/24 00:27:18;;;;;;;5.37;4.23;;;2.30;99.90;;;;;;6259552;28;20222;-69
2021/04/24 00:30:21;;;;;;;6.50;3.83;;;2.30;99.90;;;;;;6241589;28;20283;-69
2021/04/24 00:33:24;;;;;;;6.37;4.27;;;2.20;99.90;;;;;;6242386;28;20372;-69
2021/04/24 00:36:27;;;;;;;7.00;3.90;;;2.20;99.90;;;;;;6258875;28;20246;-69
2021/04/24 00:39:28;;;;;;;6.87;3.97;;;2.10;99.90;;;;;;6241011;28;20240;-69
2021/04/24 00:42:30;;;;;;;6.67;4.33;;;2.10;99.90;;;;;;6275238;28;20308;-69
2021/04/24 00:45:32;;;;;;;6.67;3.93;;;2.10;99.90;;;;;;6259772;28;20367;-69
2021/04/24 00:48:34;;;;;;;5.10;4.20;;;2.00;99.90;;;;;;6216272;28;20239;-69
2021/04/24 00:51:37;;;;;;;7.97;3.90;;;2.00;99.90;;;;;;6233388;28;20232;-69
2021/04/24 00:54:38;;;;;;;7.17;4.63;;;1.90;99.90;;;;;;6234253;28;20393;-69
2021/04/24 00:57:41;;;;;;;6.17;4.40;;;1.90;99.90;;;;;;6232890;28;20314;-69
2021/04/24 01:00:43;;;;;;;6.60;4.43;;;1.80;99.90;;;;;;6248524;28;20925;-69
2021/04/24 01:03:46;;;;;;;5.60;4.57;;;1.80;99.90;;;;;;6240922;28;20231;-69
2021/04/24 01:06:49;;;;;;;6.13;4.60;;;1.70;99.90;;;;;;6259239;28;20607;-69
2021/04/24 01:09:51;;;;;;;8.67;4.63;;;1.70;99.90;;;;;;6260124;28;20654;-69
2021/04/24 01:12:52;;;;;;;5.83;4.53;;;1.60;99.90;;;;;;6257082;28;20263;-69
2021/04/24 01:15:54;;;;;;;6.83;3.83;;;1.70;99.90;;;;;;6258551;28;20272;-69
2021/04/24 01:18:56;;;;;;;7.00;4.30;;;1.60;99.90;;;;;;6238034;28;20256;-69
2021/04/24 01:22:10;;;;;;;5.60;4.00;;;1.60;99.90;;;;;;6256959;28;20329;-69
2021/04/24 01:25:20;;;;;;;5.60;4.03;;;1.60;99.90;;;;;;6239807;28;20239;-69
2021/04/24 01:28:22;;;;;;;7.33;5.00;;;1.60;99.90;;;;;;6239351;28;20247;-69
2021/04/24 01:31:24;;;;;;;5.97;4.13;;;1.50;99.90;;;;;;6257799;28;20778;-69
2021/04/24 01:34:26;;;;;;;5.07;3.90;;;1.50;99.90;;;;;;6229555;28;20846;-69
2021/04/24 01:37:28;;;;;;;8.67;4.97;;;1.50;99.90;;;;;;6216920;28;20326;-69
2021/04/24 01:40:30;;;;;;;9.10;5.00;;;1.50;99.90;;;;;;6200398;28;20235;-69
2021/04/24 01:43:32;;;;;;;5.73;4.40;;;1.50;99.90;;;;;;6233140;28;20331;-69
2021/04/24 01:46:34;;;;;;;6.93;5.03;;;1.40;99.90;;;;;;6220459;28;20231;-69
2021/04/24 01:49:37;;;;;;;6.70;5.53;;;1.40;99.90;;;;;;6257695;28;20231;-69
2021/04/24 01:52:40;;;;;;;8.17;5.07;;;1.40;99.90;;;;;;6238083;28;20243;-69
2021/04/24 01:55:42;;;;;;;8.77;5.93;;;1.40;99.90;;;;;;6256188;28;20280;-69
2021/04/24 01:58:44;;;;;;;10.17;6.07;;;1.40;99.90;;;;;;6239128;28;20235;-69
2021/04/24 02:01:48;;;;;;;8.63;5.43;;;1.30;99.90;;;;;;6238968;28;20241;-69
2021/04/24 02:04:51;;;;;;;9.67;6.13;;;1.30;99.90;;;;;;6244251;28;20228;-69
2021/04/24 02:07:54;;;;;;;8.37;5.23;;;1.30;99.90;;;;;;6214190;28;20664;-69
2021/04/24 02:10:56;;;;;;;11.33;5.70;;;1.20;99.90;;;;;;6232436;28;20904;-69
2021/04/24 02:13:57;;;;;;;11.77;5.90;;;1.20;99.90;;;;;;6230707;28;20257;-69
2021/04/24 02:16:59;;;;;;;10.60;6.27;;;1.10;99.90;;;;;;6215561;28;20232;-69
2021/04/24 02:20:02;;;;;;;9.60;6.27;;;1.10;99.90;;;;;;6224461;28;20731;-69
2021/04/24 02:23:05;;;;;;;6.97;5.60;;;1.10;99.90;;;;;;6239418;28;20230;-69
2021/04/24 02:26:09;;;;;;;7.43;6.20;;;1.10;99.90;;;;;;6256931;28;20715;-69
2021/04/24 02:29:10;;;;;;;11.73;7.87;;;1.10;99.90;;;;;;6255209;28;20239;-69
2021/04/24 02:32:15;;;;;;;7.60;6.10;;;1.10;99.90;;;;;;6256232;28;21119;-69
2021/04/24 02:35:26;;;;;;;8.33;6.90;;;1.00;99.90;;;;;;6222267;28;20765;-69
2021/04/24 02:38:33;;;;;;;11.97;6.17;;;1.00;99.90;;;;;;6213785;28;20581;-69
2021/04/24 02:41:35;;;;;;;7.90;5.83;;;0.90;99.90;;;;;;6214506;28;20322;-69
2021/04/24 02:44:37;;;;;;;8.30;5.70;;;0.90;99.90;;;;;;6231829;28;20236;-69
2021/04/24 02:47:40;;;;;;;7.33;5.73;;;1.00;99.90;;;;;;6228126;28;20381;-69
2021/04/24 02:50:42;;;;;;;8.90;6.83;;;1.00;99.90;;;;;;6238257;28;20230;-69
2021/04/24 02:53:44;;;;;;;9.93;6.40;;;1.00;99.90;;;;;;6254882;28;20234;-69
2021/04/24 02:56:46;;;;;;;8.37;6.30;;;1.00;99.90;;;;;;6254405;28;20322;-69
2021/04/24 02:59:48;;;;;;;9.33;6.63;;;0.90;99.90;;;;;;6237754;28;20317;-69
2021/04/24 03:03:06;;;;;;;10.37;6.60;;;0.90;99.90;;;;;;6237866;28;20326;-69
2021/04/24 03:06:08;;;;;;;8.37;6.73;;;0.90;99.90;;;;;;6232450;28;20238;-69
2021/04/24 03:09:10;;;;;;;10.37;7.13;;;0.80;99.90;;;;;;6230206;28;20211;-69
2021/04/24 03:12:12;;;;;;;9.10;6.57;;;0.80;99.90;;;;;;6230796;28;20269;-69
2021/04/24 03:15:14;;;;;;;10.50;6.53;;;0.80;99.90;;;;;;6229969;28;20238;-69
2021/04/24 03:18:15;;;;;;;10.90;6.77;;;0.80;99.90;;;;;;6231816;28;20693;-69
2021/04/24 03:21:17;;;;;;;8.80;6.57;;;0.70;99.90;;;;;;6252465;28;20207;-69
2021/04/24 03:24:19;;;;;;;10.27;7.00;;;0.70;99.90;;;;;;6255296;28;20211;-69
2021/04/24 03:27:21;;;;;;;7.77;6.90;;;0.70;99.90;;;;;;6237594;28;20235;-69
2021/04/24 03:30:23;;;;;;;10.53;6.73;;;0.70;99.90;;;;;;6254724;28;20584;-69
2021/04/24 03:33:25;;;;;;;8.23;6.10;;;0.60;99.90;;;;;;6236227;28;20241;-69
2021/04/24 03:36:27;;;;;;;8.70;6.43;;;0.60;99.90;;;;;;6231769;28;20223;-69
2021/04/24 03:39:29;;;;;;;9.87;6.63;;;0.60;99.90;;;;;;6213463;28;20246;-69
2021/04/24 03:42:31;;;;;;;8.17;6.77;;;0.60;99.90;;;;;;6212103;28;20363;-69
2021/04/24 03:45:33;;;;;;;9.77;7.07;;;0.60;99.90;;;;;;6212983;28;20656;-69
2021/04/24 03:48:35;;;;;;;9.47;6.77;;;0.60;99.90;;;;;;6233574;28;20314;-69
2021/04/24 03:51:38;;;;;;;9.00;6.20;;;0.60;99.90;;;;;;6236505;28;20364;-69
2021/04/24 03:54:39;;;;;;;8.30;6.43;;;0.60;99.90;;;;;;6236282;28;20715;-69
2021/04/24 03:57:48;;;;;;;9.20;5.97;;;0.50;99.90;;;;;;6236784;28;20231;-69
2021/04/24 04:00:50;;;;;;;7.73;5.97;;;0.50;99.90;;;;;;6238004;28;20362;-69
2021/04/24 04:03:52;;;;;;;9.43;5.87;;;0.50;99.90;;;;;;6254799;28;20257;-69
2021/04/24 04:06:53;;;;;;;8.43;6.33;;;0.50;99.90;;;;;;6255366;28;20223;-69
2021/04/24 04:09:55;;;;;;;9.60;5.93;;;0.50;99.90;;;;;;6236258;28;20262;-69
2021/04/24 04:12:57;;;;;;;10.87;6.77;;;0.50;99.90;;;;;;6255636;28;20654;-69
2021/04/24 04:15:59;;;;;;;9.17;6.60;;;0.50;99.90;;;;;;6255704;28;20763;-69
2021/04/24 04:19:01;;;;;;;8.13;6.33;;;0.50;99.90;;;;;;6235409;28;20585;-69
2021/04/24 04:22:03;;;;;;;10.90;6.87;;;0.50;99.90;;;;;;6254925;28;20599;-70
2021/04/24 04:25:05;;;;;;;11.63;7.47;;;0.50;99.90;;;;;;6278710;28;20628;-69
2021/04/24 04:28:09;;;;;;;10.30;6.90;;;0.50;99.90;;;;;;6278999;28;20649;-69
2021/04/24 04:31:11;;;;;;;11.67;6.03;;;0.50;99.90;;;;;;6278935;28;20231;-70
2021/04/24 04:34:12;;;;;;;11.13;7.07;;;0.50;99.90;;;;;;6263723;28;20700;-69
2021/04/24 04:37:14;;;;;;;8.13;6.87;;;0.50;99.90;;;;;;6229879;28;20743;-70
2021/04/24 04:40:16;;;;;;;9.03;6.10;;;0.50;99.90;;;;;;6229635;28;20674;-70
2021/04/24 04:43:18;;;;;;;9.43;6.77;;;0.60;99.90;;;;;;6211370;28;20231;-69
2021/04/24 04:46:20;;;;;;;8.43;6.80;;;0.60;99.90;;;;;;6232892;28;20770;-69
2021/04/24 04:49:23;;;;;;;9.93;7.27;;;0.70;99.90;;;;;;6254120;28;20231;-69
2021/04/24 04:52:25;;;;;;;10.40;7.60;;;0.70;99.90;;;;;;6240015;28;20639;-69
2021/04/24 04:55:31;;;;;;;10.33;6.67;;;0.70;99.90;;;;;;6241164;28;20777;-70
2021/04/24 04:58:33;;;;;;;9.73;6.43;;;0.70;99.90;;;;;;6241039;28;20284;-70
2021/04/24 05:01:35;;;;;;;10.00;6.70;;;0.80;99.90;;;;;;6263527;28;20250;-70
2021/04/24 05:04:37;;;;;;;9.20;6.60;;;0.80;99.90;;;;;;6243813;28;20413;-70
2021/04/24 05:07:38;;;;;;;7.20;5.80;;;0.90;99.90;;;;;;6233515;28;20365;-70
2021/04/24 05:10:54;;;;;;;7.87;5.93;;;1.00;99.90;;;;;;6233012;28;20572;-70
2021/04/24 05:13:56;;;;;;;8.80;5.93;;;1.00;99.90;;;;;;6215332;28;20721;-70
2021/04/24 05:16:58;;;;;;;7.67;5.73;;;1.00;99.90;;;;;;6232837;28;20266;-70
2021/04/24 05:19:59;;;;;;;7.77;6.40;;;1.10;99.90;;;;;;6228208;28;20231;-70
2021/04/24 05:23:02;;;;;;;7.57;5.80;;;1.20;99.90;;;;;;6258295;28;20238;-70
2021/04/24 05:26:04;;;;;;;8.47;6.50;;;1.20;99.90;;;;;;6258995;28;20369;-70
2021/04/24 05:29:05;;;;;;;8.33;6.10;;;1.30;99.90;;;;;;6257780;28;20718;-70
2021/04/24 05:32:08;;;;;;;6.83;5.10;;;1.30;99.90;;;;;;6258714;28;20237;-70
2021/04/24 05:35:12;;;;;;;7.93;6.33;;;1.40;99.90;;;;;;6257415;28;20227;-70
2021/04/24 05:38:13;;;;;;;9.43;6.07;;;1.40;99.90;;;;;;6240630;28;20579;-70
2021/04/24 05:41:20;;;;;;;8.73;6.57;;;1.40;99.90;;;;;;6257853;28;20707;-69
2021/04/24 05:44:23;;;;;;;10.17;6.20;;;1.50;99.90;;;;;;6240451;28;20696;-69
2021/04/24 05:47:25;;;;;;;6.53;5.70;;;1.60;99.90;;;;;;6240447;28;20227;-69
2021/04/24 05:50:27;;;;;;;6.77;5.43;;;1.70;99.90;;;;;;6258130;28;20238;-69
2021/04/24 05:53:29;;;;;;;8.83;5.90;;;1.80;99.90;;;;;;6255814;28;20274;-69
2021/04/24 05:56:31;;;;;;;8.67;5.40;;;1.80;99.90;;;;;;6238596;28;20233;-69
2021/04/24 05:59:33;;;;;;;8.37;5.57;;;1.90;99.90;;;;;;6238950;28;20322;-69
2021/04/24 06:02:36;;;;;;;7.50;6.40;;;2.00;99.90;;;;;;6256133;28;20230;-69
2021/04/24 06:05:38;;;;;;;9.87;6.23;;;2.10;99.90;;;;;;6220717;28;20238;-69
2021/04/24 06:08:41;;;;;;;8.03;6.37;;;2.10;99.90;;;;;;6232199;28;20281;-69
2021/04/24 06:11:43;;;;;;;10.30;6.23;;;2.20;99.90;;;;;;6232415;28;20331;-69
2021/04/24 06:14:45;;;;;;;10.37;5.97;;;2.30;99.90;;;;;;6215296;28;20586;-69
2021/04/24 06:17:47;;;;;;;8.03;6.43;;;2.40;99.90;;;;;;6197569;28;20713;-69
2021/04/24 06:20:49;;;;;;;8.43;6.17;;;2.50;99.90;;;;;;6251021;28;20308;-69
2021/04/24 06:23:51;;;;;;;11.67;7.13;;;2.50;99.90;;;;;;6256119;28;20267;-69
2021/04/24 06:26:54;;;;;;;6.97;6.20;;;2.60;99.90;;;;;;6255819;28;20254;-70
2021/04/24 06:29:56;;;;;;;10.63;7.17;;;2.80;99.90;;;;;;6256501;28;20646;-69
2021/04/24 06:32:58;;;;;;;10.83;7.70;;;2.90;99.90;;;;;;6255265;28;20643;-69
2021/04/24 06:35:59;;;;;;;11.23;6.90;;;3.10;99.90;;;;;;6238590;28;20281;-69
2021/04/24 06:39:05;;;;;;;15.00;7.17;;;3.30;99.90;;;;;;6257070;28;20640;-69
2021/04/24 06:42:07;;;;;;;8.67;6.20;;;3.40;99.90;;;;;;6242609;28;20686;-69
2021/04/24 06:45:11;;;;;;;8.90;5.93;;;3.70;99.90;;;;;;6243643;28;20215;-69
2021/04/24 06:48:13;;;;;;;8.63;6.10;;;4.00;99.90;;;;;;6255395;28;20207;-69
2021/04/24 06:51:15;;;;;;;7.70;5.03;;;4.40;99.90;;;;;;6256377;28;20203;-69
2021/04/24 06:54:17;;;;;;;8.20;6.00;;;4.70;99.90;;;;;;6237733;28;20648;-69
2021/04/24 06:57:19;;;;;;;7.70;5.10;;;5.10;99.90;;;;;;6255239;28;20295;-69
2021/04/24 07:00:22;;;;;;;7.60;5.10;;;5.60;99.90;;;;;;6239824;28;20239;-70
2021/04/24 07:03:25;;;;;;;7.57;4.90;;;6.00;99.90;;;;;;6254527;28;20651;-70
2021/04/24 07:06:28;;;;;;;7.93;5.00;;;6.50;99.90;;;;;;6237750;28;20318;-70
2021/04/24 07:09:30;;;;;;;7.73;4.97;;;6.90;99.90;;;;;;6254890;28;20601;-69
2021/04/24 07:12:32;;;;;;;6.17;4.80;;;7.30;99.90;;;;;;6255731;28;20247;-69
2021/04/24 07:15:35;;;;;;;6.67;4.90;;;7.60;99.90;;;;;;6236795;28;20245;-69
2021/04/24 07:18:39;;;;;;;6.43;3.80;;;8.00;99.90;;;;;;6256053;28;20241;-69
2021/04/24 07:21:42;;;;;;;5.73;3.73;;;8.30;99.90;;;;;;6230523;28;20245;-70
2021/04/24 07:24:46;;;;;;;6.70;3.90;;;8.70;98.00;;;;;;6212696;28;20322;-70
2021/04/24 07:27:48;;;;;;;5.40;4.20;;;9.10;98.70;;;;;;6214024;28;20227;-70
2021/04/24 07:30:50;;;;;;;8.20;4.30;;;9.40;95.80;;;;;;6211973;28;20673;-70
2021/04/24 07:33:52;;;;;;;9.03;5.07;;;9.80;95.80;;;;;;6236328;28;20318;-69
2021/04/24 07:36:54;;;;;;;11.97;4.53;;;10.20;91.50;;;;;;6256655;28;20357;-70
2021/04/24 07:39:56;;;;;;;6.80;4.50;;;10.50;91.50;;;;;;6255597;28;20305;-71
2021/04/24 07:47:53;;;;;;;9.97;5.07;;;11.00;85.80;;;;;;6253326;28;20254;-70
2021/04/24 07:50:55;;;;;;;5.80;4.23;;;11.20;80.90;;;;;;6255427;28;20327;-70
2021/04/24 07:53:56;;;;;;;8.13;5.70;;;11.50;80.40;;;;;;6255179;28;20271;-70
2021/04/24 07:56:59;;;;;;;6.67;4.70;;;11.80;75.50;;;;;;6255735;28;20576;-70
2021/04/24 08:00:04;;;;;;;8.73;5.70;;;12.10;77.10;;;;;;6253363;28;20229;-70
2021/04/24 08:03:07;;;;;;;8.63;5.37;;;12.30;71.20;;;;;;6253308;28;20554;-70
2021/04/24 08:06:08;;;;;;;10.30;5.07;;;12.40;73.30;;;;;;6231890;28;20692;-70
2021/04/24 08:09:10;;;;;;;6.50;4.73;;;12.60;73.00;;;;;;6229264;28;20231;-70
2021/04/24 08:12:12;;;;;;;9.63;5.00;;;12.70;70.80;;;;;;6212977;28;20227;-70
2021/04/24 08:15:15;;;;;;;7.67;4.63;;;12.90;70.20;;;;;;6228026;28;20200;-70
2021/04/24 08:18:17;;;;;;;7.97;5.43;;;13.30;68.40;;;;;;6228954;28;20339;-70
2021/04/24 08:21:20;;;;;;;6.93;5.23;;;13.60;66.40;;;;;;6263790;28;20267;-71
2021/04/24 08:24:22;;;;;;;8.50;5.07;;;13.70;65.60;;;;;;6261440;28;20583;-70
2021/04/24 08:27:24;;;;;;;7.50;4.77;;;13.70;63.50;;;;;;6266122;28;20729;-70
2021/04/24 08:30:27;;;;;;;5.80;3.93;;;13.90;61.20;;;;;;6265081;28;20612;-70
2021/04/24 08:33:29;;;;;;;9.00;5.07;;;14.20;61.80;;;;;;6280674;28;20321;-70
2021/04/24 08:36:31;;;;;;;6.03;4.53;;;14.60;58.80;;;;;;6234516;28;20244;-70
2021/04/24 08:39:34;;;;;;;7.53;5.17;;;14.90;61.40;;;;;;6216953;28;20300;-70
2021/04/24 08:42:36;;;;;;;7.03;5.10;;;15.10;58.20;;;;;;6234009;28;20786;-70
2021/04/24 08:45:41;;;;;;;8.67;4.57;;;15.30;58.40;;;;;;6216667;28;20271;-70
2021/04/24 08:48:43;;;;;;;10.43;5.67;;;15.50;56.20;;;;;;6257024;28;20778;-70
2021/04/24 08:51:46;;;;;;;8.27;4.87;;;15.50;54.80;;;;;;6240880;28;20291;-70
2021/04/24 08:54:49;;;;;;;7.37;4.87;;;15.50;57.20;;;;;;6257704;28;20385;-70
2021/04/24 08:57:51;;;;;;;8.80;5.30;;;15.60;54.50;;;;;;6259207;28;20237;-70
2021/04/24 09:00:53;;;;;;;6.67;4.93;;;15.70;53.80;;;;;;6274905;28;20245;-70
2021/04/24 09:03:55;;;;;;;7.03;5.07;;;15.90;54.40;;;;;;6272155;28;20233;-70
2021/04/24 09:06:57;;;;;;;7.30;4.63;;;16.10;52.80;;;;;;6233480;28;20815;-69
2021/04/24 09:09:59;;;;;;;6.23;4.43;;;16.20;52.60;;;;;;6234008;28;20250;-69
2021/04/24 09:13:01;;;;;;;8.30;4.60;;;16.40;53.30;;;;;;6215630;28;20334;-70
2021/04/24 09:16:03;;;;;;;7.20;5.13;;;16.50;52.30;;;;;;6233438;28;20242;-70
2021/04/24 09:19:28;;;;;;;6.70;4.83;;;16.60;51.70;;;;;;6220267;28;20372;-70
2021/04/24 09:22:29;;;;;;;6.73;4.13;;;16.80;51.10;;;;;;6258075;28;20331;-69
2021/04/24 09:25:36;;;;;;;6.93;4.80;;;16.90;49.60;;;;;;6239993;28;20377;-70
2021/04/24 09:28:48;;;;;;;7.67;5.07;;;17.10;53.00;;;;;;6257338;28;20314;-70
2021/04/24 09:31:50;;;;;;;5.13;3.90;;;17.30;49.50;;;;;;6257064;28;20739;-70
2021/04/24 09:34:54;;;;;;;5.27;4.07;;;17.40;49.50;;;;;;6258185;28;20266;-70
2021/04/24 09:38:01;;;;;;;7.27;4.90;;;17.60;48.80;;;;;;6256064;28;20722;-70
2021/04/24 09:41:19;;;;;;;7.73;4.63;;;17.70;48.50;;;;;;6257668;28;20450;-70
2021/04/24 09:44:24;;;;;;;6.20;4.40;;;17.90;49.20;;;;;;6257442;28;20231;-70
2021/04/24 09:47:46;;;;;;;7.57;4.80;;;18.20;48.10;;;;;;6257331;28;20227;-70
2021/04/24 09:50:50;;;;;;;9.83;5.67;;;18.10;46.90;;;;;;6256623;28;20696;-70
2021/04/24 09:53:58;;;;;;;8.00;5.50;;;18.10;47.10;;;;;;6257462;28;20230;-70
2021/04/24 09:57:06;;;;;;;7.87;4.97;;;17.80;46.70;;;;;;6244230;28;20266;-70
2021/04/24 10:00:14;;;;;;;7.53;5.53;;;17.70;46.50;;;;;;6238890;28;20239;-69
2021/04/24 10:03:37;;;;;;;6.50;4.70;;;17.90;47.90;;;;;;6238297;28;20699;-70
2021/04/24 10:06:43;;;;;;;6.73;4.57;;;18.10;46.90;;;;;;6232140;28;20326;-69
2021/04/24 10:09:44;;;;;;;8.67;5.67;;;18.50;46.90;;;;;;6232205;28;20263;-69
2021/04/24 10:12:58;;;;;;;11.13;5.73;;;18.70;46.20;;;;;;6214088;28;20337;-70
2021/04/24 10:16:00;;;;;;;10.83;6.57;;;18.20;46.10;;;;;;6232398;28;20247;-71
2021/04/24 10:19:07;;;;;;;7.87;5.93;;;17.50;45.80;;;;;;6218472;28;20234;-70
2021/04/24 10:22:12;;;;;;;9.43;5.80;;;16.70;46.40;;;;;;6256075;28;20330;-70
2021/04/24 10:25:15;;;;;;;9.97;6.30;;;16.30;48.50;;;;;;6237525;28;20373;-70
2021/04/24 10:28:18;;;;;;;10.50;6.30;;;16.50;47.60;;;;;;6257666;28;20239;-70
2021/04/24 10:31:20;;;;;;;8.07;5.77;;;16.60;47.50;;;;;;6256798;28;20742;-69
2021/04/24 10:34:23;;;;;;;9.13;6.37;;;17.10;50.10;;;;;;6256938;28;20329;-70
2021/04/24 10:37:25;;;;;;;10.07;6.07;;;17.50;46.40;;;;;;6238014;28;20227;-70
2021/04/24 10:40:27;;;;;;;8.03;5.47;;;17.60;47.20;;;;;;6256545;28;20330;-69
2021/04/24 10:43:29;;;;;;;10.47;5.93;;;17.80;46.40;;;;;;6256223;28;20312;-69
2021/04/24 10:46:57;;;;;;;7.97;5.90;;;18.00;44.60;;;;;;6238411;28;21174;-69
2021/04/24 10:49:59;;;;;;;9.73;6.90;;;17.80;45.30;;;;;;6251060;28;20683;-70
2021/04/24 10:53:26;;;;;;;9.57;6.40;;;17.80;46.40;;;;;;6238711;28;20328;-69
2021/04/24 10:56:31;;;;;;;11.57;6.93;;;17.60;46.20;;;;;;6255653;28;20404;-69
2021/04/24 10:59:32;;;;;;;8.83;6.23;;;17.60;47.60;;;;;;6256349;28;20373;-69
2021/04/24 11:02:43;;;;;;;9.20;6.27;;;17.90;46.70;;;;;;6242968;28;20237;-69
2021/04/24 11:05:48;;;;;;;7.20;5.33;;;18.10;45.90;;;;;;6218721;28;20232;-69
2021/04/24 11:09:17;;;;;;;10.70;5.83;;;18.30;46.50;;;;;;6230833;28;20598;-69
2021/04/24 11:12:19;;;;;;;10.17;7.20;;;18.80;48.00;;;;;;6230037;28;20263;-69
2021/04/24 11:15:22;;;;;;;9.00;6.87;;;19.30;44.90;;;;;;6213404;28;20357;-69
2021/04/24 11:18:24;;;;;;;8.27;6.27;;;19.20;44.40;;;;;;6230818;28;20617;-69
2021/04/24 11:21:28;;;;;;;8.00;6.37;;;19.20;45.30;;;;;;6236358;28;20230;-69
2021/04/24 11:24:36;;;;;;;9.73;6.57;;;19.70;44.70;;;;;;6254905;28;20357;-69
2021/04/24 11:28:01;;;;;;;8.40;6.10;;;20.10;42.90;;;;;;6254848;28;20966;-69
2021/04/24 11:31:05;;;;;;;9.97;7.23;;;19.50;43.20;;;;;;6254879;28;20321;-69
2021/04/24 11:34:26;;;;;;;10.40;7.07;;;19.20;43.20;;;;;;6255264;28;20698;-69
2021/04/24 11:37:32;;;;;;;7.90;6.07;;;18.80;43.30;;;;;;6255790;28;20293;-69
2021/04/24 11:40:34;;;;;;;8.40;6.13;;;18.70;44.80;;;;;;6255533;28;20330;-70
2021/04/24 11:43:36;;;;;;;8.30;5.70;;;18.80;43.60;;;;;;6254748;28;20270;-69
2021/04/24 11:46:39;;;;;;;8.03;6.13;;;18.90;45.40;;;;;;6254370;28;20318;-70
2021/04/24 11:49:51;;;;;;;9.33;6.53;;;19.50;45.60;;;;;;6254429;28;20616;-69
2021/04/24 11:52:55;;;;;;;6.37;5.77;;;20.00;43.10;;;;;;6236861;28;20239;-69
2021/04/24 11:55:56;;;;;;;8.53;5.90;;;20.20;42.40;;;;;;6254725;28;20314;-69
2021/04/24 11:58:59;;;;;;;8.43;5.80;;;20.30;41.80;;;;;;6254919;28;20257;-70
2021/04/24 12:02:19;;;;;;;8.27;5.80;;;20.50;42.00;;;;;;6261522;28;20280;-70
2021/04/24 12:05:23;;;;;;;7.77;5.50;;;20.80;41.40;;;;;;6246370;28;20257;-70
2021/04/24 12:08:25;;;;;;;7.40;4.77;;;20.90;40.20;;;;;;6222398;28;20247;-70
2021/04/24 12:11:26;;;;;;;8.00;5.10;;;21.20;42.90;;;;;;6238386;28;20654;-70
2021/04/24 12:14:30;;;;;;;9.57;6.47;;;21.60;40.40;;;;;;6220997;28;20231;-69
2021/04/24 12:17:33;;;;;;;9.63;5.93;;;21.60;40.40;;;;;;6237799;28;20322;-69
2021/04/24 12:20:45;;;;;;;8.63;5.73;;;21.40;39.40;;;;;;6243316;28;20346;-69
2021/04/24 12:23:49;;;;;;;10.50;6.10;;;21.20;39.80;;;;;;6262948;28;20692;-69
2021/04/24 12:26:52;;;;;;;10.43;6.10;;;21.20;41.30;;;;;;6245531;28;20238;-70
2021/04/24 12:29:55;;;;;;;7.67;5.63;;;21.10;40.00;;;;;;6262572;28;20576;-70
2021/04/24 12:33:12;;;;;;;8.77;5.30;;;20.60;40.60;;;;;;6261174;28;20384;-70
2021/04/24 12:36:15;;;;;;;8.40;6.13;;;20.70;40.80;;;;;;6245356;28;20429;-70
2021/04/24 12:39:17;;;;;;;8.97;6.23;;;20.70;39.90;;;;;;6245273;28;20211;-70
2021/04/24 12:42:18;;;;;;;7.93;5.27;;;20.70;39.70;;;;;;6263562;28;20293;-69
2021/04/24 12:45:23;;;;;;;9.93;5.20;;;20.90;41.70;;;;;;6263427;28;20345;-69
2021/04/24 12:48:32;;;;;;;8.03;6.10;;;21.60;40.50;;;;;;6262868;28;20234;-70
2021/04/24 12:51:35;;;;;;;8.30;5.67;;;21.20;39.00;;;;;;6244299;28;20235;-70
2021/04/24 12:54:37;;;;;;;10.10;5.60;;;21.10;39.50;;;;;;6243648;28;20231;-70
2021/04/24 12:57:48;;;;;;;7.87;4.97;;;21.70;39.50;;;;;;6227889;28;20695;-70
2021/04/24 13:00:50;;;;;;;9.00;5.57;;;22.10;40.80;;;;;;6260313;28;20373;-70
2021/04/24 13:03:59;;;;;;;8.80;6.17;;;22.20;38.60;;;;;;6278320;28;20258;-70
2021/04/24 13:07:02;;;;;;;9.53;5.67;;;21.80;38.60;;;;;;6236480;28;20248;-69
2021/04/24 13:10:18;;;;;;;7.23;4.97;;;22.00;40.40;;;;;;6238121;28;20322;-70
2021/04/24 13:13:20;;;;;;;9.17;5.87;;;22.50;40.70;;;;;;6235023;28;20251;-70
2021/04/24 13:16:32;;;;;;;7.53;5.90;;;22.80;39.70;;;;;;6233432;28;20346;-70
2021/04/24 13:19:46;;;;;;;6.73;4.87;;;23.00;38.80;;;;;;6233669;28;20235;-70
2021/04/24 13:22:49;;;;;;;7.87;5.47;;;23.10;38.60;;;;;;6233378;28;20726;-70
2021/04/24 13:25:51;;;;;;;4.67;4.17;;;23.10;36.90;;;;;;6234334;28;20655;-70
2021/04/24 13:28:52;;;;;;;7.57;5.33;;;23.50;38.00;;;;;;6215858;28;20326;-70
2021/04/24 13:32:00;;;;;;;10.20;6.50;;;24.10;37.80;;;;;;6233666;28;20251;-69
2021/04/24 13:35:03;;;;;;;9.70;5.53;;;24.20;36.30;;;;;;6247867;28;20231;-70
2021/04/24 13:38:06;;;;;;;6.90;5.47;;;24.30;36.20;;;;;;6240462;28;20774;-70
2021/04/24 13:41:17;;;;;;;7.97;4.57;;;24.40;35.80;;;;;;6257425;28;20324;-70
2021/04/24 13:44:19;;;;;;;7.43;5.17;;;24.90;35.60;;;;;;6239664;28;20238;-70
2021/04/24 13:47:24;;;;;;;8.90;5.53;;;25.30;34.30;;;;;;6257358;28;20246;-70
2021/04/24 13:50:29;;;;;;;8.20;5.20;;;25.80;33.80;;;;;;6239874;28;20777;-70
2021/04/24 13:53:31;;;;;;;8.13;5.40;;;26.20;33.40;;;;;;6256785;28;20271;-69
2021/04/24 13:56:33;;;;;;;6.70;4.73;;;26.60;33.80;;;;;;6255850;28;20310;-69
2021/04/24 13:59:35;;;;;;;10.07;5.10;;;26.80;32.60;;;;;;6256788;28;20325;-69
2021/04/24 14:02:37;;;;;;;8.83;5.53;;;27.10;32.70;;;;;;6256376;28;20590;-70
2021/04/24 14:05:40;;;;;;;7.80;5.50;;;26.60;31.80;;;;;;6237730;28;20234;-70
2021/04/24 14:08:43;;;;;;;8.03;6.47;;;26.00;32.00;;;;;;6214759;28;20271;-70
2021/04/24 14:11:45;;;;;;;9.83;5.23;;;25.40;32.60;;;;;;6231847;28;20344;-70
2021/04/24 14:14:47;;;;;;;8.10;5.83;;;25.40;33.20;;;;;;6214220;28;20706;-70
2021/04/24 14:17:48;;;;;;;7.53;5.40;;;25.20;33.00;;;;;;6232388;28;20228;-70
2021/04/24 14:20:51;;;;;;;7.90;6.10;;;25.10;33.30;;;;;;6250924;28;20268;-70
2021/04/24 14:23:53;;;;;;;6.47;4.87;;;25.30;32.20;;;;;;6238991;28;20231;-70
2021/04/24 14:26:56;;;;;;;9.40;5.57;;;25.60;32.70;;;;;;6222239;28;20305;-69
2021/04/24 14:30:04;;;;;;;6.53;5.03;;;26.20;31.50;;;;;;6256289;28;20282;-69
2021/04/24 14:33:06;;;;;;;8.60;5.27;;;26.50;31.60;;;;;;6257379;28;20234;-69
2021/04/24 14:36:09;;;;;;;11.50;5.17;;;27.20;31.20;;;;;;6239788;28;20223;-69
2021/04/24 14:39:11;;;;;;;6.90;5.33;;;27.50;30.80;;;;;;6256483;28;20222;-69
2021/04/24 14:42:13;;;;;;;9.00;5.37;;;27.90;31.00;;;;;;6257662;28;20276;-69
2021/04/24 14:45:16;;;;;;;10.03;6.30;;;28.40;30.00;;;;;;6257009;28;20285;-69
2021/04/24 14:48:17;;;;;;;7.17;5.63;;;28.20;30.00;;;;;;6254935;28;20222;-69
2021/04/24 14:51:20;;;;;;;8.00;4.93;;;28.10;31.30;;;;;;6238500;28;20213;-69
2021/04/24 14:54:22;;;;;;;5.40;4.90;;;28.50;31.00;;;;;;6237492;28;20234;-69
2021/04/24 14:57:24;;;;;;;10.30;5.70;;;28.80;29.90;;;;;;6237925;28;20300;-70
2021/04/24 15:00:26;;;;;;;6.13;5.28;;;28.80;29.80;;;;;;6238174;28;20235;-70
2021/04/24 15:03:28;;;;;;;7.43;5.30;;;28.50;29.60;;;;;;6253781;28;20222;-70
2021/04/24 15:06:30;;;;;;;7.72;5.28;;;28.30;29.80;;;;;;6213719;28;20243;-70
2021/04/24 15:09:32;;;;;;;9.47;5.70;;;28.60;30.40;;;;;;6231243;28;20238;-70
2021/04/24 15:12:34;;;;;;;6.20;4.80;;;28.80;29.50;;;;;;6231778;28;20240;-70
2021/04/24 15:15:41;;;;;;;8.38;4.55;;;28.90;29.10;;;;;;6230519;28;20232;-69
2021/04/24 15:18:46;;;;;;;7.60;5.63;;;29.00;29.40;;;;;;6230671;28;20232;-69
2021/04/24 15:21:48;;;;;;;8.60;5.83;;;29.20;29.00;;;;;;6231322;28;20272;-69
2021/04/24 15:24:51;;;;;;;6.83;4.60;;;28.60;29.00;;;;;;6230652;28;20231;-69
2021/04/24 15:27:53;;;;;;;10.83;5.60;;;28.60;29.80;;;;;;6231351;28;20232;-69
2021/04/24 15:30:56;;;;;;;6.90;4.70;;;28.80;29.20;;;;;;6212248;28;20239;-69
2021/04/24 15:33:58;;;;;;;6.43;3.65;;;28.90;28.90;;;;;;6218284;28;20336;-69
2021/04/24 15:37:01;;;;;;;6.17;4.03;;;29.00;29.30;;;;;;6237837;28;20239;-69
2021/04/24 15:40:05;;;;;;;7.65;4.97;;;28.90;29.00;;;;;;6255122;28;20266;-69
2021/04/24 15:43:08;;;;;;;6.10;5.50;;;28.40;29.20;;;;;;6255228;28;20231;-69
2021/04/24 15:46:09;;;;;;;9.37;5.60;;;27.20;29.20;;;;;;6255172;28;20235;-69
2021/04/24 15:49:12;;;;;;;10.03;4.80;;;25.90;30.30;;;;;;6256406;28;20242;-69
2021/04/24 15:52:14;;;;;;;6.67;5.23;;;25.00;31.60;;;;;;6236819;28;20231;-69
2021/04/24 15:55:17;;;;;;;7.83;5.10;;;24.00;32.20;;;;;;6254619;28;20253;-69
2021/04/24 15:58:20;;;;;;;6.90;5.70;;;22.90;33.50;;;;;;6220733;28;20235;-69
2021/04/24 16:01:23;;;;;;;6.07;5.17;;;21.50;34.90;;;;;;6236659;28;20239;-69
2021/04/24 16:04:25;;;;;;;8.20;5.93;;;20.50;36.40;;;;;;6245719;28;20588;-69
2021/04/24 16:07:26;;;;;;;8.43;5.03;;;19.80;37.40;;;;;;6229645;28;20231;-69